sensor_id;sensor_type;location;lat;lon;timestamp;P1;durP1;ratioP1;P2;durP2;ratioP2
27489;SDS011;14925;51.026;13.752;2023-11-22T00:01:50;33.70;;;20.92;;
27489;SDS011;14925;51.026;13.752;2023-11-22T00:04:15;39.17;;;23.73;;
27489;SDS011;14925;51.026;13.752;2023-11-22T00:06:42;35.60;;;22.48;;
27489;SDS011;14925;51.026;13.752;2023-11-22T00:09:08;36.67;;;22.30;;
27489;SDS011;14925;51.026;13.752;2023-11-22T00:11:33;34.20;;;21.45;;
27489;SDS011;14925;51.026;13.752;2023-11-22T00:13:59;38.67;;;22.90;;
27489;SDS011;14925;51.026;13.752;2023-11-22T00:16:25;40.58;;;23.73;;
27489;SDS011;14925;51.026;13.752;2023-11-22T00:18:50;45.08;;;26.23;;
27489;SDS011;14925;51.026;13.752;2023-11-22T00:21:15;40.90;;;22.65;;
27489;SDS011;14925;51.026;13.752;2023-11-22T00:23:41;40.28;;;23.30;;
27489;SDS011;14925;51.026;13.752;2023-11-22T00:26:06;47.50;;;25.33;;
27489;SDS011;14925;51.026;13.752;2023-11-22T00:28:32;44.80;;;26.55;;
27489;SDS011;14925;51.026;13.752;2023-11-22T00:30:57;45.97;;;25.27;;
27489;SDS011;14925;51.026;13.752;2023-11-22T00:33:23;40.08;;;22.50;;
27489;SDS011;14925;51.026;13.752;2023-11-22T00:35:49;45.60;;;25.05;;
27489;SDS011;14925;51.026;13.752;2023-11-22T00:38:15;49.10;;;26.85;;
27489;SDS011;14925;51.026;13.752;2023-11-22T00:40:40;37.75;;;21.95;;
27489;SDS011;14925;51.026;13.752;2023-11-22T00:43:05;39.15;;;20.50;;
27489;SDS011;14925;51.026;13.752;2023-11-22T00:45:31;43.45;;;25.45;;
27489;SDS011;14925;51.026;13.752;2023-11-22T00:47:57;37.22;;;21.95;;
27489;SDS011;14925;51.026;13.752;2023-11-22T00:50:22;44.42;;;24.13;;
27489;SDS011;14925;51.026;13.752;2023-11-22T00:52:47;41.67;;;25.17;;
27489;SDS011;14925;51.026;13.752;2023-11-22T00:55:13;43.78;;;25.77;;
27489;SDS011;14925;51.026;13.752;2023-11-22T00:57:38;46.15;;;25.17;;
27489;SDS011;14925;51.026;13.752;2023-11-22T01:00:05;46.88;;;26.17;;
27489;SDS011;14925;51.026;13.752;2023-11-22T01:02:34;54.88;;;29.70;;
27489;SDS011;14925;51.026;13.752;2023-11-22T01:04:59;40.20;;;23.08;;
27489;SDS011;14925;51.026;13.752;2023-11-22T01:07:25;47.40;;;26.70;;
27489;SDS011;14925;51.026;13.752;2023-11-22T01:09:50;41.60;;;23.85;;
27489;SDS011;14925;51.026;13.752;2023-11-22T01:12:15;42.53;;;24.73;;
27489;SDS011;14925;51.026;13.752;2023-11-22T01:14:41;43.97;;;25.20;;
27489;SDS011;14925;51.026;13.752;2023-11-22T01:17:06;45.35;;;25.38;;
27489;SDS011;14925;51.026;13.752;2023-11-22T01:19:32;47.88;;;25.48;;
27489;SDS011;14925;51.026;13.752;2023-11-22T01:21:57;51.08;;;28.35;;
27489;SDS011;14925;51.026;13.752;2023-11-22T01:24:22;45.30;;;26.33;;
27489;SDS011;14925;51.026;13.752;2023-11-22T01:26:48;50.60;;;27.55;;
27489;SDS011;14925;51.026;13.752;2023-11-22T01:29:13;49.55;;;28.55;;
27489;SDS011;14925;51.026;13.752;2023-11-22T01:31:39;45.90;;;27.23;;
27489;SDS011;14925;51.026;13.752;2023-11-22T01:34:04;52.85;;;28.63;;
27489;SDS011;14925;51.026;13.752;2023-11-22T01:36:30;49.58;;;27.92;;
27489;SDS011;14925;51.026;13.752;2023-11-22T01:38:56;51.63;;;28.33;;
27489;SDS011;14925;51.026;13.752;2023-11-22T01:41:22;48.55;;;27.13;;
27489;SDS011;14925;51.026;13.752;2023-11-22T01:43:47;45.78;;;25.83;;
27489;SDS011;14925;51.026;13.752;2023-11-22T01:46:22;43.85;;;25.92;;
27489;SDS011;14925;51.026;13.752;2023-11-22T01:48:48;50.08;;;26.33;;
27489;SDS011;14925;51.026;13.752;2023-11-22T01:51:14;44.58;;;25.42;;
27489;SDS011;14925;51.026;13.752;2023-11-22T01:53:39;50.05;;;28.23;;
27489;SDS011;14925;51.026;13.752;2023-11-22T01:56:05;48.97;;;27.00;;
27489;SDS011;14925;51.026;13.752;2023-11-22T01:58:30;48.20;;;27.10;;
27489;SDS011;14925;51.026;13.752;2023-11-22T02:00:56;59.05;;;30.17;;
27489;SDS011;14925;51.026;13.752;2023-11-22T02:03:23;47.67;;;26.70;;
27489;SDS011;14925;51.026;13.752;2023-11-22T02:05:48;49.30;;;26.73;;
27489;SDS011;14925;51.026;13.752;2023-11-22T02:08:15;44.78;;;25.45;;
27489;SDS011;14925;51.026;13.752;2023-11-22T02:10:43;50.67;;;28.48;;
27489;SDS011;14925;51.026;13.752;2023-11-22T02:13:10;44.58;;;24.30;;
27489;SDS011;14925;51.026;13.752;2023-11-22T02:15:35;46.33;;;25.55;;
27489;SDS011;14925;51.026;13.752;2023-11-22T02:18:02;44.03;;;25.58;;
27489;SDS011;14925;51.026;13.752;2023-11-22T02:20:28;45.47;;;26.15;;
27489;SDS011;14925;51.026;13.752;2023-11-22T02:22:54;48.63;;;26.05;;
27489;SDS011;14925;51.026;13.752;2023-11-22T02:25:19;46.58;;;25.25;;
27489;SDS011;14925;51.026;13.752;2023-11-22T02:27:45;46.40;;;25.70;;
27489;SDS011;14925;51.026;13.752;2023-11-22T02:30:10;54.90;;;27.95;;
27489;SDS011;14925;51.026;13.752;2023-11-22T02:32:36;47.33;;;24.63;;
27489;SDS011;14925;51.026;13.752;2023-11-22T02:35:02;48.47;;;26.02;;
27489;SDS011;14925;51.026;13.752;2023-11-22T02:37:32;46.10;;;24.65;;
27489;SDS011;14925;51.026;13.752;2023-11-22T02:40:00;46.22;;;26.00;;
27489;SDS011;14925;51.026;13.752;2023-11-22T02:42:29;48.60;;;26.67;;
27489;SDS011;14925;51.026;13.752;2023-11-22T02:44:54;41.92;;;23.23;;
27489;SDS011;14925;51.026;13.752;2023-11-22T02:47:23;45.42;;;24.90;;
27489;SDS011;14925;51.026;13.752;2023-11-22T02:49:49;47.17;;;24.23;;
27489;SDS011;14925;51.026;13.752;2023-11-22T02:52:16;48.55;;;27.10;;
27489;SDS011;14925;51.026;13.752;2023-11-22T02:54:45;54.17;;;26.70;;
27489;SDS011;14925;51.026;13.752;2023-11-22T02:57:11;53.55;;;28.05;;
27489;SDS011;14925;51.026;13.752;2023-11-22T02:59:36;42.72;;;24.30;;
27489;SDS011;14925;51.026;13.752;2023-11-22T03:02:02;48.90;;;25.15;;
27489;SDS011;14925;51.026;13.752;2023-11-22T03:04:27;45.63;;;24.27;;
27489;SDS011;14925;51.026;13.752;2023-11-22T03:06:53;45.67;;;24.70;;
27489;SDS011;14925;51.026;13.752;2023-11-22T03:09:19;47.08;;;25.35;;
27489;SDS011;14925;51.026;13.752;2023-11-22T03:11:44;48.33;;;25.98;;
27489;SDS011;14925;51.026;13.752;2023-11-22T03:14:12;43.88;;;25.25;;
27489;SDS011;14925;51.026;13.752;2023-11-22T03:16:41;46.30;;;24.88;;
27489;SDS011;14925;51.026;13.752;2023-11-22T03:19:07;41.17;;;22.85;;
27489;SDS011;14925;51.026;13.752;2023-11-22T03:21:33;43.78;;;24.08;;
27489;SDS011;14925;51.026;13.752;2023-11-22T03:24:00;41.47;;;23.75;;
27489;SDS011;14925;51.026;13.752;2023-11-22T03:26:28;46.80;;;25.23;;
27489;SDS011;14925;51.026;13.752;2023-11-22T03:28:54;48.15;;;25.52;;
27489;SDS011;14925;51.026;13.752;2023-11-22T03:31:20;48.88;;;27.27;;
27489;SDS011;14925;51.026;13.752;2023-11-22T03:33:46;45.53;;;24.80;;
27489;SDS011;14925;51.026;13.752;2023-11-22T03:36:11;44.45;;;25.48;;
27489;SDS011;14925;51.026;13.752;2023-11-22T03:38:38;46.70;;;25.92;;
27489;SDS011;14925;51.026;13.752;2023-11-22T03:41:04;48.45;;;25.90;;
27489;SDS011;14925;51.026;13.752;2023-11-22T03:43:30;52.60;;;27.33;;
27489;SDS011;14925;51.026;13.752;2023-11-22T03:45:55;47.38;;;25.08;;
27489;SDS011;14925;51.026;13.752;2023-11-22T03:48:20;47.22;;;25.80;;
27489;SDS011;14925;51.026;13.752;2023-11-22T03:50:48;44.08;;;23.95;;
27489;SDS011;14925;51.026;13.752;2023-11-22T03:53:13;49.70;;;26.40;;
27489;SDS011;14925;51.026;13.752;2023-11-22T03:55:39;46.85;;;26.48;;
27489;SDS011;14925;51.026;13.752;2023-11-22T03:58:04;49.42;;;27.95;;
27489;SDS011;14925;51.026;13.752;2023-11-22T04:00:30;49.08;;;26.02;;
27489;SDS011;14925;51.026;13.752;2023-11-22T04:02:55;46.42;;;25.25;;
27489;SDS011;14925;51.026;13.752;2023-11-22T04:05:22;43.20;;;25.13;;
27489;SDS011;14925;51.026;13.752;2023-11-22T04:07:47;48.67;;;26.27;;
27489;SDS011;14925;51.026;13.752;2023-11-22T04:10:16;42.47;;;24.35;;
27489;SDS011;14925;51.026;13.752;2023-11-22T04:12:42;49.63;;;25.73;;
27489;SDS011;14925;51.026;13.752;2023-11-22T04:15:07;42.78;;;24.13;;
27489;SDS011;14925;51.026;13.752;2023-11-22T04:17:36;45.80;;;24.33;;
27489;SDS011;14925;51.026;13.752;2023-11-22T04:20:03;42.42;;;23.48;;
27489;SDS011;14925;51.026;13.752;2023-11-22T04:22:34;47.88;;;23.52;;
27489;SDS011;14925;51.026;13.752;2023-11-22T04:24:59;49.47;;;25.25;;
27489;SDS011;14925;51.026;13.752;2023-11-22T04:27:26;45.45;;;24.95;;
27489;SDS011;14925;51.026;13.752;2023-11-22T04:29:51;39.17;;;21.88;;
27489;SDS011;14925;51.026;13.752;2023-11-22T04:32:16;44.13;;;23.83;;
27489;SDS011;14925;51.026;13.752;2023-11-22T04:34:42;44.33;;;24.30;;
27489;SDS011;14925;51.026;13.752;2023-11-22T04:37:07;46.30;;;25.00;;
27489;SDS011;14925;51.026;13.752;2023-11-22T04:39:33;37.10;;;22.75;;
27489;SDS011;14925;51.026;13.752;2023-11-22T04:41:59;39.63;;;23.80;;
27489;SDS011;14925;51.026;13.752;2023-11-22T04:44:24;41.78;;;23.55;;
27489;SDS011;14925;51.026;13.752;2023-11-22T04:46:50;46.85;;;25.88;;
27489;SDS011;14925;51.026;13.752;2023-11-22T04:49:16;46.97;;;25.98;;
27489;SDS011;14925;51.026;13.752;2023-11-22T04:51:42;45.33;;;24.10;;
27489;SDS011;14925;51.026;13.752;2023-11-22T04:54:08;42.17;;;24.63;;
27489;SDS011;14925;51.026;13.752;2023-11-22T04:56:33;44.13;;;24.50;;
27489;SDS011;14925;51.026;13.752;2023-11-22T04:58:59;43.00;;;24.02;;
27489;SDS011;14925;51.026;13.752;2023-11-22T05:01:24;40.45;;;23.42;;
27489;SDS011;14925;51.026;13.752;2023-11-22T05:03:50;40.67;;;23.30;;
27489;SDS011;14925;51.026;13.752;2023-11-22T05:06:15;42.58;;;24.23;;
27489;SDS011;14925;51.026;13.752;2023-11-22T05:08:41;42.80;;;23.55;;
27489;SDS011;14925;51.026;13.752;2023-11-22T05:11:07;42.90;;;23.67;;
27489;SDS011;14925;51.026;13.752;2023-11-22T05:13:33;40.42;;;23.38;;
27489;SDS011;14925;51.026;13.752;2023-11-22T05:16:01;42.05;;;24.13;;
27489;SDS011;14925;51.026;13.752;2023-11-22T05:18:26;41.28;;;23.38;;
27489;SDS011;14925;51.026;13.752;2023-11-22T05:20:52;46.40;;;25.60;;
27489;SDS011;14925;51.026;13.752;2023-11-22T05:23:17;44.25;;;23.95;;
27489;SDS011;14925;51.026;13.752;2023-11-22T05:25:43;39.08;;;23.55;;
27489;SDS011;14925;51.026;13.752;2023-11-22T05:28:09;40.95;;;24.52;;
27489;SDS011;14925;51.026;13.752;2023-11-22T05:30:34;41.88;;;23.13;;
27489;SDS011;14925;51.026;13.752;2023-11-22T05:33:00;39.47;;;22.75;;
27489;SDS011;14925;51.026;13.752;2023-11-22T05:35:27;38.15;;;23.60;;
27489;SDS011;14925;51.026;13.752;2023-11-22T05:37:53;38.40;;;22.98;;
27489;SDS011;14925;51.026;13.752;2023-11-22T05:40:18;42.60;;;24.20;;
27489;SDS011;14925;51.026;13.752;2023-11-22T05:42:44;41.55;;;24.05;;
27489;SDS011;14925;51.026;13.752;2023-11-22T05:45:09;45.55;;;25.75;;
27489;SDS011;14925;51.026;13.752;2023-11-22T05:47:35;44.60;;;25.15;;
27489;SDS011;14925;51.026;13.752;2023-11-22T05:50:00;41.78;;;24.02;;
27489;SDS011;14925;51.026;13.752;2023-11-22T05:52:26;40.60;;;23.13;;
27489;SDS011;14925;51.026;13.752;2023-11-22T05:54:51;44.67;;;25.33;;
27489;SDS011;14925;51.026;13.752;2023-11-22T05:57:16;41.22;;;23.73;;
27489;SDS011;14925;51.026;13.752;2023-11-22T05:59:44;46.88;;;25.00;;
27489;SDS011;14925;51.026;13.752;2023-11-22T06:02:11;46.13;;;26.15;;
27489;SDS011;14925;51.026;13.752;2023-11-22T06:04:37;44.55;;;25.13;;
27489;SDS011;14925;51.026;13.752;2023-11-22T06:07:03;46.83;;;26.13;;
27489;SDS011;14925;51.026;13.752;2023-11-22T06:09:29;49.60;;;26.02;;
27489;SDS011;14925;51.026;13.752;2023-11-22T06:11:55;47.17;;;26.23;;
27489;SDS011;14925;51.026;13.752;2023-11-22T06:14:20;50.45;;;27.20;;
27489;SDS011;14925;51.026;13.752;2023-11-22T06:16:46;52.55;;;27.58;;
27489;SDS011;14925;51.026;13.752;2023-11-22T06:19:12;44.22;;;26.88;;
27489;SDS011;14925;51.026;13.752;2023-11-22T06:21:37;48.67;;;26.48;;
27489;SDS011;14925;51.026;13.752;2023-11-22T06:24:04;48.00;;;27.42;;
27489;SDS011;14925;51.026;13.752;2023-11-22T06:26:33;47.35;;;27.05;;
27489;SDS011;14925;51.026;13.752;2023-11-22T06:28:59;49.80;;;26.98;;
27489;SDS011;14925;51.026;13.752;2023-11-22T06:31:25;50.10;;;26.25;;
27489;SDS011;14925;51.026;13.752;2023-11-22T06:33:50;47.60;;;27.85;;
27489;SDS011;14925;51.026;13.752;2023-11-22T06:36:17;47.22;;;26.80;;
27489;SDS011;14925;51.026;13.752;2023-11-22T06:38:43;52.80;;;27.75;;
27489;SDS011;14925;51.026;13.752;2023-11-22T06:41:10;48.15;;;26.33;;
27489;SDS011;14925;51.026;13.752;2023-11-22T06:43:36;46.33;;;25.67;;
27489;SDS011;14925;51.026;13.752;2023-11-22T06:46:01;47.97;;;27.15;;
27489;SDS011;14925;51.026;13.752;2023-11-22T06:48:30;52.72;;;27.48;;
27489;SDS011;14925;51.026;13.752;2023-11-22T06:50:56;49.38;;;27.15;;
27489;SDS011;14925;51.026;13.752;2023-11-22T06:53:21;45.65;;;25.98;;
27489;SDS011;14925;51.026;13.752;2023-11-22T06:55:46;50.67;;;27.13;;
27489;SDS011;14925;51.026;13.752;2023-11-22T06:58:12;57.33;;;29.20;;
27489;SDS011;14925;51.026;13.752;2023-11-22T07:00:38;51.85;;;28.17;;
27489;SDS011;14925;51.026;13.752;2023-11-22T07:03:05;52.47;;;27.42;;
27489;SDS011;14925;51.026;13.752;2023-11-22T07:05:30;52.13;;;27.52;;
27489;SDS011;14925;51.026;13.752;2023-11-22T07:07:56;53.42;;;28.08;;
27489;SDS011;14925;51.026;13.752;2023-11-22T07:10:21;46.65;;;26.75;;
27489;SDS011;14925;51.026;13.752;2023-11-22T07:12:47;51.92;;;27.80;;
27489;SDS011;14925;51.026;13.752;2023-11-22T07:15:12;49.03;;;26.95;;
27489;SDS011;14925;51.026;13.752;2023-11-22T07:17:38;51.92;;;27.65;;
27489;SDS011;14925;51.026;13.752;2023-11-22T07:20:04;52.88;;;29.00;;
27489;SDS011;14925;51.026;13.752;2023-11-22T07:22:34;54.15;;;29.42;;
27489;SDS011;14925;51.026;13.752;2023-11-22T07:25:00;55.70;;;28.23;;
27489;SDS011;14925;51.026;13.752;2023-11-22T07:27:27;53.80;;;27.92;;
27489;SDS011;14925;51.026;13.752;2023-11-22T07:29:53;49.58;;;28.15;;
27489;SDS011;14925;51.026;13.752;2023-11-22T07:32:19;51.53;;;28.27;;
27489;SDS011;14925;51.026;13.752;2023-11-22T07:34:45;52.03;;;28.98;;
27489;SDS011;14925;51.026;13.752;2023-11-22T07:37:12;50.22;;;28.38;;
27489;SDS011;14925;51.026;13.752;2023-11-22T07:39:38;52.50;;;29.50;;
27489;SDS011;14925;51.026;13.752;2023-11-22T07:42:04;55.60;;;29.98;;
27489;SDS011;14925;51.026;13.752;2023-11-22T07:44:33;53.55;;;27.77;;
27489;SDS011;14925;51.026;13.752;2023-11-22T07:47:00;52.15;;;28.35;;
27489;SDS011;14925;51.026;13.752;2023-11-22T07:49:27;50.45;;;26.50;;
27489;SDS011;14925;51.026;13.752;2023-11-22T07:51:54;47.45;;;26.48;;
27489;SDS011;14925;51.026;13.752;2023-11-22T07:54:19;48.80;;;28.35;;
27489;SDS011;14925;51.026;13.752;2023-11-22T07:56:50;53.20;;;28.42;;
27489;SDS011;14925;51.026;13.752;2023-11-22T07:59:19;46.33;;;25.48;;
27489;SDS011;14925;51.026;13.752;2023-11-22T08:01:45;49.05;;;27.15;;
27489;SDS011;14925;51.026;13.752;2023-11-22T08:04:13;56.28;;;28.38;;
27489;SDS011;14925;51.026;13.752;2023-11-22T08:06:38;51.97;;;27.20;;
27489;SDS011;14925;51.026;13.752;2023-11-22T08:09:04;47.45;;;25.50;;
27489;SDS011;14925;51.026;13.752;2023-11-22T08:11:32;47.35;;;26.75;;
27489;SDS011;14925;51.026;13.752;2023-11-22T08:13:57;46.85;;;25.73;;
27489;SDS011;14925;51.026;13.752;2023-11-22T08:16:24;46.55;;;26.52;;
27489;SDS011;14925;51.026;13.752;2023-11-22T08:18:50;37.95;;;22.02;;
27489;SDS011;14925;51.026;13.752;2023-11-22T08:21:20;45.60;;;24.90;;
27489;SDS011;14925;51.026;13.752;2023-11-22T08:23:48;48.05;;;24.83;;
27489;SDS011;14925;51.026;13.752;2023-11-22T08:26:14;47.78;;;25.17;;
27489;SDS011;14925;51.026;13.752;2023-11-22T08:28:40;46.30;;;25.70;;
27489;SDS011;14925;51.026;13.752;2023-11-22T08:31:06;45.78;;;25.52;;
27489;SDS011;14925;51.026;13.752;2023-11-22T08:33:41;46.00;;;25.50;;
27489;SDS011;14925;51.026;13.752;2023-11-22T08:36:07;47.72;;;23.63;;
27489;SDS011;14925;51.026;13.752;2023-11-22T08:38:34;44.08;;;25.10;;
27489;SDS011;14925;51.026;13.752;2023-11-22T08:41:06;44.28;;;25.00;;
27489;SDS011;14925;51.026;13.752;2023-11-22T08:43:32;45.10;;;24.15;;
27489;SDS011;14925;51.026;13.752;2023-11-22T08:45:59;43.95;;;24.60;;
27489;SDS011;14925;51.026;13.752;2023-11-22T08:48:28;41.97;;;24.08;;
27489;SDS011;14925;51.026;13.752;2023-11-22T08:50:54;44.60;;;25.75;;
27489;SDS011;14925;51.026;13.752;2023-11-22T08:53:21;50.78;;;25.40;;
27489;SDS011;14925;51.026;13.752;2023-11-22T08:55:49;48.95;;;26.23;;
27489;SDS011;14925;51.026;13.752;2023-11-22T08:58:19;52.22;;;28.55;;
27489;SDS011;14925;51.026;13.752;2023-11-22T09:00:48;54.15;;;28.10;;
27489;SDS011;14925;51.026;13.752;2023-11-22T09:03:16;50.78;;;28.58;;
27489;SDS011;14925;51.026;13.752;2023-11-22T09:05:42;53.05;;;26.92;;
27489;SDS011;14925;51.026;13.752;2023-11-22T09:08:08;48.05;;;26.05;;
27489;SDS011;14925;51.026;13.752;2023-11-22T09:10:38;48.17;;;26.33;;
27489;SDS011;14925;51.026;13.752;2023-11-22T09:13:04;51.17;;;27.50;;
27489;SDS011;14925;51.026;13.752;2023-11-22T09:15:33;46.53;;;26.25;;
27489;SDS011;14925;51.026;13.752;2023-11-22T09:18:00;48.58;;;26.23;;
27489;SDS011;14925;51.026;13.752;2023-11-22T09:20:25;50.83;;;27.77;;
27489;SDS011;14925;51.026;13.752;2023-11-22T09:22:53;51.33;;;26.23;;
27489;SDS011;14925;51.026;13.752;2023-11-22T09:27:53;50.75;;;27.17;;
27489;SDS011;14925;51.026;13.752;2023-11-22T09:30:26;51.28;;;25.88;;
27489;SDS011;14925;51.026;13.752;2023-11-22T09:33:11;47.15;;;27.02;;
27489;SDS011;14925;51.026;13.752;2023-11-22T09:35:41;48.15;;;26.88;;
27489;SDS011;14925;51.026;13.752;2023-11-22T09:38:08;41.95;;;24.50;;
27489;SDS011;14925;51.026;13.752;2023-11-22T09:40:37;41.42;;;23.00;;
27489;SDS011;14925;51.026;13.752;2023-11-22T09:43:05;40.00;;;22.83;;
27489;SDS011;14925;51.026;13.752;2023-11-22T09:45:31;38.60;;;20.92;;
27489;SDS011;14925;51.026;13.752;2023-11-22T09:47:56;43.50;;;24.10;;
27489;SDS011;14925;51.026;13.752;2023-11-22T09:50:37;46.08;;;24.17;;
27489;SDS011;14925;51.026;13.752;2023-11-22T09:53:22;33.95;;;18.77;;
27489;SDS011;14925;51.026;13.752;2023-11-22T09:55:53;36.17;;;16.77;;
27489;SDS011;14925;51.026;13.752;2023-11-22T09:58:19;42.08;;;22.73;;
27489;SDS011;14925;51.026;13.752;2023-11-22T10:00:46;38.67;;;20.83;;
27489;SDS011;14925;51.026;13.752;2023-11-22T10:03:14;35.05;;;19.95;;
27489;SDS011;14925;51.026;13.752;2023-11-22T10:08:19;30.77;;;16.85;;
27489;SDS011;14925;51.026;13.752;2023-11-22T10:11:03;32.42;;;18.35;;
27489;SDS011;14925;51.026;13.752;2023-11-22T10:14:01;36.92;;;18.25;;
27489;SDS011;14925;51.026;13.752;2023-11-22T10:16:34;29.13;;;15.68;;
27489;SDS011;14925;51.026;13.752;2023-11-22T10:22:27;27.52;;;16.35;;
27489;SDS011;14925;51.026;13.752;2023-11-22T10:24:59;38.15;;;18.92;;
27489;SDS011;14925;51.026;13.752;2023-11-22T10:27:34;35.47;;;19.60;;
27489;SDS011;14925;51.026;13.752;2023-11-22T10:30:00;34.13;;;17.38;;
27489;SDS011;14925;51.026;13.752;2023-11-22T10:32:29;31.13;;;15.40;;
27489;SDS011;14925;51.026;13.752;2023-11-22T10:35:25;28.52;;;14.10;;
27489;SDS011;14925;51.026;13.752;2023-11-22T10:37:52;24.50;;;13.75;;
27489;SDS011;14925;51.026;13.752;2023-11-22T10:40:21;29.98;;;15.02;;
27489;SDS011;14925;51.026;13.752;2023-11-22T10:43:07;37.85;;;17.40;;
27489;SDS011;14925;51.026;13.752;2023-11-22T10:48:38;35.85;;;18.80;;
27489;SDS011;14925;51.026;13.752;2023-11-22T10:51:06;29.90;;;16.23;;
27489;SDS011;14925;51.026;13.752;2023-11-22T10:53:43;29.08;;;14.32;;
27489;SDS011;14925;51.026;13.752;2023-11-22T10:56:20;32.35;;;16.63;;
27489;SDS011;14925;51.026;13.752;2023-11-22T10:58:55;30.60;;;17.00;;
27489;SDS011;14925;51.026;13.752;2023-11-22T11:02:04;28.15;;;15.38;;
27489;SDS011;14925;51.026;13.752;2023-11-22T11:04:59;34.75;;;17.52;;
27489;SDS011;14925;51.026;13.752;2023-11-22T11:07:27;29.60;;;16.23;;
27489;SDS011;14925;51.026;13.752;2023-11-22T11:10:21;26.92;;;13.10;;
27489;SDS011;14925;51.026;13.752;2023-11-22T11:13:04;27.08;;;13.35;;
27489;SDS011;14925;51.026;13.752;2023-11-22T11:19:30;24.80;;;11.88;;
27489;SDS011;14925;51.026;13.752;2023-11-22T11:22:07;24.38;;;12.40;;
27489;SDS011;14925;51.026;13.752;2023-11-22T11:24:59;23.10;;;12.05;;
27489;SDS011;14925;51.026;13.752;2023-11-22T11:36:53;30.27;;;16.95;;
27489;SDS011;14925;51.026;13.752;2023-11-22T11:39:28;32.40;;;16.48;;
27489;SDS011;14925;51.026;13.752;2023-11-22T11:42:11;31.17;;;17.52;;
27489;SDS011;14925;51.026;13.752;2023-11-22T11:45:08;30.55;;;16.30;;
27489;SDS011;14925;51.026;13.752;2023-11-22T11:47:56;32.33;;;17.38;;
27489;SDS011;14925;51.026;13.752;2023-11-22T11:50:22;30.05;;;16.00;;
27489;SDS011;14925;51.026;13.752;2023-11-22T11:52:47;31.88;;;17.10;;
27489;SDS011;14925;51.026;13.752;2023-11-22T11:55:15;32.00;;;16.35;;
27489;SDS011;14925;51.026;13.752;2023-11-22T11:57:40;26.73;;;15.40;;
27489;SDS011;14925;51.026;13.752;2023-11-22T12:00:08;31.88;;;16.27;;
27489;SDS011;14925;51.026;13.752;2023-11-22T12:02:37;28.88;;;15.38;;
27489;SDS011;14925;51.026;13.752;2023-11-22T12:05:03;30.48;;;15.35;;
27489;SDS011;14925;51.026;13.752;2023-11-22T12:07:33;28.23;;;15.07;;
27489;SDS011;14925;51.026;13.752;2023-11-22T12:10:01;27.10;;;15.40;;
27489;SDS011;14925;51.026;13.752;2023-11-22T12:12:27;27.85;;;15.75;;
27489;SDS011;14925;51.026;13.752;2023-11-22T12:14:54;29.08;;;14.98;;
27489;SDS011;14925;51.026;13.752;2023-11-22T12:17:21;27.15;;;14.57;;
27489;SDS011;14925;51.026;13.752;2023-11-22T12:19:47;27.88;;;15.27;;
27489;SDS011;14925;51.026;13.752;2023-11-22T12:22:13;22.88;;;12.95;;
27489;SDS011;14925;51.026;13.752;2023-11-22T12:24:41;24.58;;;13.10;;
27489;SDS011;14925;51.026;13.752;2023-11-22T12:27:09;22.05;;;11.98;;
27489;SDS011;14925;51.026;13.752;2023-11-22T12:29:36;22.23;;;12.30;;
27489;SDS011;14925;51.026;13.752;2023-11-22T12:32:01;19.52;;;12.07;;
27489;SDS011;14925;51.026;13.752;2023-11-22T12:34:27;21.60;;;12.45;;
27489;SDS011;14925;51.026;13.752;2023-11-22T12:36:56;21.35;;;12.40;;
27489;SDS011;14925;51.026;13.752;2023-11-22T12:39:22;23.38;;;12.50;;
27489;SDS011;14925;51.026;13.752;2023-11-22T12:41:49;20.23;;;11.82;;
27489;SDS011;14925;51.026;13.752;2023-11-22T12:44:18;21.63;;;11.02;;
27489;SDS011;14925;51.026;13.752;2023-11-22T12:46:50;21.75;;;11.27;;
27489;SDS011;14925;51.026;13.752;2023-11-22T12:49:28;23.52;;;12.07;;
27489;SDS011;14925;51.026;13.752;2023-11-22T12:51:56;21.33;;;12.38;;
27489;SDS011;14925;51.026;13.752;2023-11-22T12:54:22;20.92;;;13.00;;
27489;SDS011;14925;51.026;13.752;2023-11-22T12:56:51;20.38;;;11.43;;
27489;SDS011;14925;51.026;13.752;2023-11-22T12:59:23;20.40;;;11.73;;
27489;SDS011;14925;51.026;13.752;2023-11-22T13:01:52;21.75;;;12.40;;
27489;SDS011;14925;51.026;13.752;2023-11-22T13:04:30;23.30;;;12.63;;
27489;SDS011;14925;51.026;13.752;2023-11-22T13:06:55;21.13;;;11.95;;
27489;SDS011;14925;51.026;13.752;2023-11-22T13:09:26;21.42;;;11.93;;
27489;SDS011;14925;51.026;13.752;2023-11-22T13:12:00;22.20;;;12.15;;
27489;SDS011;14925;51.026;13.752;2023-11-22T13:14:31;21.92;;;12.48;;
27489;SDS011;14925;51.026;13.752;2023-11-22T13:17:02;21.63;;;11.73;;
27489;SDS011;14925;51.026;13.752;2023-11-22T13:19:29;20.25;;;11.95;;
27489;SDS011;14925;51.026;13.752;2023-11-22T13:21:54;23.58;;;12.55;;
27489;SDS011;14925;51.026;13.752;2023-11-22T13:24:30;20.95;;;11.52;;
27489;SDS011;14925;51.026;13.752;2023-11-22T13:26:55;20.75;;;11.50;;
27489;SDS011;14925;51.026;13.752;2023-11-22T13:29:27;20.05;;;11.15;;
27489;SDS011;14925;51.026;13.752;2023-11-22T13:31:55;23.65;;;11.18;;
27489;SDS011;14925;51.026;13.752;2023-11-22T13:34:20;18.98;;;11.63;;
27489;SDS011;14925;51.026;13.752;2023-11-22T13:36:55;21.25;;;11.00;;
27489;SDS011;14925;51.026;13.752;2023-11-22T13:39:29;21.77;;;11.57;;
27489;SDS011;14925;51.026;13.752;2023-11-22T13:41:58;18.67;;;11.23;;
27489;SDS011;14925;51.026;13.752;2023-11-22T13:44:32;23.92;;;11.95;;
27489;SDS011;14925;51.026;13.752;2023-11-22T13:47:00;20.42;;;11.88;;
27489;SDS011;14925;51.026;13.752;2023-11-22T13:49:32;21.90;;;11.77;;
27489;SDS011;14925;51.026;13.752;2023-11-22T13:52:01;19.15;;;11.45;;
27489;SDS011;14925;51.026;13.752;2023-11-22T13:54:30;20.88;;;12.18;;
27489;SDS011;14925;51.026;13.752;2023-11-22T13:56:57;21.08;;;11.15;;
27489;SDS011;14925;51.026;13.752;2023-11-22T13:59:24;20.60;;;11.48;;
27489;SDS011;14925;51.026;13.752;2023-11-22T14:01:52;21.52;;;12.00;;
27489;SDS011;14925;51.026;13.752;2023-11-22T14:04:17;20.13;;;12.45;;
27489;SDS011;14925;51.026;13.752;2023-11-22T14:06:42;19.00;;;10.70;;
27489;SDS011;14925;51.026;13.752;2023-11-22T14:09:10;20.00;;;11.82;;
27489;SDS011;14925;51.026;13.752;2023-11-22T14:11:37;22.65;;;12.00;;
27489;SDS011;14925;51.026;13.752;2023-11-22T14:14:03;18.83;;;11.60;;
27489;SDS011;14925;51.026;13.752;2023-11-22T14:16:29;19.92;;;12.40;;
27489;SDS011;14925;51.026;13.752;2023-11-22T14:18:56;19.55;;;11.57;;
27489;SDS011;14925;51.026;13.752;2023-11-22T14:21:22;17.67;;;10.68;;
27489;SDS011;14925;51.026;13.752;2023-11-22T14:23:49;23.40;;;11.77;;
27489;SDS011;14925;51.026;13.752;2023-11-22T14:26:15;20.90;;;11.95;;
27489;SDS011;14925;51.026;13.752;2023-11-22T14:28:40;23.50;;;13.27;;
27489;SDS011;14925;51.026;13.752;2023-11-22T14:31:06;21.02;;;12.25;;
27489;SDS011;14925;51.026;13.752;2023-11-22T14:33:32;25.40;;;13.10;;
27489;SDS011;14925;51.026;13.752;2023-11-22T14:35:58;22.20;;;12.95;;
27489;SDS011;14925;51.026;13.752;2023-11-22T14:38:23;24.90;;;13.77;;